Time;durP1;ratioP1;P1;durP2;ratioP2;P2;SDS_P1;SDS_P2;PMS_P1;PMS_P2;Temp;Humidity;BMP_temperature;BMP_pressure;BME280_temperature;BME280_humidity;BME280_pressure;Samples;Min_cycle;Max_cycle;Signal;HPM_P1;HPM_P2
2021/10/23 00:00:00;;;;;;;8.88;2.05;;;9.60;99.90;;;;;;5026083;28;20030;-78
2021/10/23 00:02:25;;;;;;;7.88;1.98;;;9.60;99.90;;;;;;5028874;28;20108;-78
2021/10/23 00:04:51;;;;;;;7.07;1.55;;;9.40;99.90;;;;;;5028462;28;20032;-78
2021/10/23 00:07:17;;;;;;;6.45;1.52;;;9.30;99.90;;;;;;5028775;28;20132;-76
2021/10/23 00:09:42;;;;;;;8.40;1.83;;;9.30;99.90;;;;;;5028741;28;20061;-78
2021/10/23 00:12:08;;;;;;;4.88;1.85;;;9.30;99.90;;;;;;5029396;28;20064;-78
2021/10/23 00:14:34;;;;;;;7.18;1.55;;;9.30;99.90;;;;;;5028500;28;20033;-79
2021/10/23 00:16:59;;;;;;;5.53;1.67;;;9.60;99.90;;;;;;5029043;28;20034;-78
2021/10/23 00:19:25;;;;;;;8.70;1.80;;;9.40;99.90;;;;;;5026694;28;20026;-77
2021/10/23 00:21:51;;;;;;;7.75;1.75;;;9.40;99.90;;;;;;5028189;28;20037;-79
2021/10/23 00:24:16;;;;;;;6.65;1.88;;;9.30;99.90;;;;;;5028612;28;20522;-77
2021/10/23 00:26:42;;;;;;;6.70;1.75;;;9.30;99.90;;;;;;5028144;28;20113;-77
2021/10/23 00:29:08;;;;;;;7.32;1.77;;;9.70;99.90;;;;;;5028885;28;20025;-77
2021/10/23 00:31:33;;;;;;;3.55;1.40;;;10.00;99.90;;;;;;5027532;28;20164;-78
2021/10/23 00:33:59;;;;;;;6.07;1.75;;;9.20;99.90;;;;;;5023610;28;20486;-79
2021/10/23 00:36:25;;;;;;;5.28;1.45;;;9.40;99.90;;;;;;5027877;28;20029;-78
2021/10/23 00:38:50;;;;;;;4.55;1.48;;;9.50;99.90;;;;;;5028082;28;20486;-77
2021/10/23 00:41:16;;;;;;;11.40;2.17;;;9.10;99.90;;;;;;5026445;28;20041;-78
2021/10/23 00:43:44;;;;;;;5.65;1.63;;;9.30;99.90;;;;;;5028097;28;20065;-78
2021/10/23 00:46:12;;;;;;;7.95;1.90;;;9.10;99.90;;;;;;5027745;28;20044;-78
2021/10/23 00:48:38;;;;;;;5.85;1.73;;;9.30;99.90;;;;;;5026956;28;20498;-78
2021/10/23 00:51:03;;;;;;;6.53;1.92;;;9.30;99.90;;;;;;5027094;28;20124;-78
2021/10/23 00:53:29;;;;;;;6.55;1.70;;;9.00;99.90;;;;;;5010309;28;20675;-77
2021/10/23 00:55:55;;;;;;;5.35;1.50;;;10.10;99.90;;;;;;5029120;28;20025;-78
2021/10/23 00:58:20;;;;;;;5.13;1.48;;;9.30;99.90;;;;;;5029792;28;20033;-78
2021/10/23 01:00:46;;;;;;;4.05;1.65;;;10.40;99.90;;;;;;5029591;28;20028;-77
2021/10/23 01:03:13;;;;;;;6.53;1.40;;;9.20;99.90;;;;;;5029430;28;20111;-78
2021/10/23 01:05:39;;;;;;;7.95;1.92;;;9.50;99.90;;;;;;5028117;28;20057;-78
2021/10/23 01:08:05;;;;;;;10.02;1.65;;;9.10;99.90;;;;;;5013173;28;20148;-78
2021/10/23 01:10:30;;;;;;;6.82;1.75;;;9.10;99.90;;;;;;5011982;28;20506;-78
2021/10/23 01:12:58;;;;;;;8.05;1.77;;;10.00;99.90;;;;;;5012723;28;20560;-78
2021/10/23 01:15:26;;;;;;;4.63;1.60;;;10.00;99.90;;;;;;5032388;28;20070;-78
2021/10/23 01:17:54;;;;;;;7.00;1.80;;;10.30;99.90;;;;;;5013270;28;20693;-78
2021/10/23 01:20:21;;;;;;;8.18;2.22;;;10.20;99.90;;;;;;5027853;28;20067;-78
2021/10/23 01:22:49;;;;;;;4.07;1.52;;;9.90;99.90;;;;;;5030677;28;20022;-78
2021/10/23 01:25:15;;;;;;;8.18;2.10;;;9.40;99.90;;;;;;5029383;28;20116;-77
2021/10/23 01:27:41;;;;;;;8.35;1.50;;;9.10;99.90;;;;;;5028517;28;20034;-77
2021/10/23 01:30:09;;;;;;;6.63;1.85;;;9.20;99.90;;;;;;5029842;28;20029;-77
2021/10/23 01:32:35;;;;;;;5.43;1.35;;;9.10;99.90;;;;;;5032027;28;20025;-78
2021/10/23 01:35:01;;;;;;;7.30;1.67;;;9.80;99.90;;;;;;5030435;28;20406;-77
2021/10/23 01:37:41;;;;;;;6.18;1.80;;;9.20;99.90;;;;;;5028713;28;20029;-77
2021/10/23 01:40:10;;;;;;;6.35;1.60;;;9.10;99.90;;;;;;5027462;28;20034;-77
2021/10/23 01:42:35;;;;;;;7.05;2.45;;;9.10;99.90;;;;;;5026561;28;20022;-76
2021/10/23 01:45:01;;;;;;;7.05;1.80;;;9.30;99.90;;;;;;5027746;28;20036;-77
2021/10/23 01:47:27;;;;;;;6.20;1.60;;;9.20;99.90;;;;;;5030393;28;20024;-77
2021/10/23 01:49:53;;;;;;;7.63;1.75;;;9.70;99.90;;;;;;5052652;22;20157;-79
2021/10/23 01:52:18;;;;;;;6.03;1.75;;;9.20;99.90;;;;;;5032583;28;20535;-79
2021/10/23 01:54:44;;;;;;;4.75;1.08;;;9.10;99.90;;;;;;5047734;28;20037;-79
2021/10/23 01:57:09;;;;;;;9.13;1.60;;;10.40;99.90;;;;;;5021182;28;20505;-78
2021/10/23 01:59:35;;;;;;;6.65;1.65;;;9.10;99.90;;;;;;5012066;28;20029;-78
2021/10/23 02:02:02;;;;;;;7.32;1.85;;;10.10;99.90;;;;;;5012128;28;20482;-78
2021/10/23 02:04:28;;;;;;;7.53;1.60;;;10.10;99.90;;;;;;5011980;28;20022;-78
2021/10/23 02:06:53;;;;;;;7.63;1.88;;;10.80;99.90;;;;;;5012650;28;20037;-78
2021/10/23 02:09:19;;;;;;;5.38;1.70;;;9.10;99.90;;;;;;5011586;28;20087;-78
2021/10/23 02:11:45;;;;;;;5.50;1.67;;;9.60;99.90;;;;;;5011102;28;20126;-78
2021/10/23 02:14:10;;;;;;;6.10;1.95;;;10.30;99.90;;;;;;5011068;28;20029;-79
2021/10/23 02:16:37;;;;;;;7.82;1.33;;;9.10;99.90;;;;;;5012397;28;20045;-79
2021/10/23 02:19:03;;;;;;;5.82;1.60;;;10.40;99.90;;;;;;5012190;28;20033;-78
2021/10/23 02:21:28;;;;;;;7.38;1.65;;;9.30;99.90;;;;;;5012084;28;20117;-78
2021/10/23 02:23:54;;;;;;;6.85;1.50;;;9.10;99.90;;;;;;5014160;28;20080;-78
2021/10/23 02:26:20;;;;;;;4.93;1.52;;;10.40;99.90;;;;;;5015783;28;20548;-78
2021/10/23 02:28:45;;;;;;;6.90;1.70;;;10.60;99.90;;;;;;5014165;28;20030;-79
2021/10/23 02:31:11;;;;;;;8.15;1.65;;;9.10;99.90;;;;;;5012504;28;20080;-79
2021/10/23 02:33:37;;;;;;;6.50;1.42;;;9.20;99.90;;;;;;5012504;28;20061;-78
2021/10/23 02:36:03;;;;;;;7.18;1.80;;;9.20;99.90;;;;;;5013808;28;20026;-78
2021/10/23 02:38:29;;;;;;;5.03;1.67;;;9.20;99.90;;;;;;5014857;28;20032;-78
2021/10/23 02:40:56;;;;;;;5.65;1.60;;;9.30;99.90;;;;;;5011750;28;20054;-79
2021/10/23 02:43:23;;;;;;;5.43;1.52;;;9.20;99.90;;;;;;5012195;28;20088;-78
2021/10/23 02:45:49;;;;;;;5.45;1.15;;;9.30;99.90;;;;;;5012949;28;20033;-79
2021/10/23 02:48:15;;;;;;;3.97;1.42;;;9.40;99.90;;;;;;5012326;28;20091;-79
2021/10/23 02:50:40;;;;;;;5.78;1.65;;;9.10;99.90;;;;;;5011629;28;20045;-79
2021/10/23 02:53:06;;;;;;;6.30;1.52;;;9.10;99.90;;;;;;5012459;28;20026;-79
2021/10/23 02:55:32;;;;;;;9.43;1.58;;;10.10;99.90;;;;;;5014474;28;20022;-78
2021/10/23 02:57:57;;;;;;;6.20;1.67;;;9.10;99.90;;;;;;5012699;28;20169;-79
2021/10/23 03:00:23;;;;;;;7.00;1.67;;;9.00;99.90;;;;;;5009221;28;20033;-79
2021/10/23 03:02:49;;;;;;;4.45;1.45;;;9.00;99.90;;;;;;5011913;28;20496;-79
2021/10/23 03:05:15;;;;;;;5.32;1.40;;;9.10;99.90;;;;;;5011673;28;20500;-79
2021/10/23 03:07:41;;;;;;;4.88;1.50;;;9.10;99.90;;;;;;5009929;28;20478;-79
2021/10/23 03:10:08;;;;;;;11.02;1.52;;;8.80;99.90;;;;;;5009718;28;20045;-79
2021/10/23 03:12:33;;;;;;;6.78;1.75;;;9.00;99.90;;;;;;5011263;28;20605;-79
2021/10/23 03:14:59;;;;;;;5.20;1.67;;;9.20;99.90;;;;;;5011314;28;20121;-79
2021/10/23 03:17:25;;;;;;;5.97;1.75;;;8.80;99.90;;;;;;5011470;28;20034;-79
2021/10/23 03:19:50;;;;;;;7.80;1.73;;;9.60;99.90;;;;;;5009890;28;20030;-78
2021/10/23 03:22:16;;;;;;;4.95;1.40;;;9.00;99.90;;;;;;5011153;28;20060;-79
2021/10/23 03:24:42;;;;;;;7.20;2.15;;;8.80;99.90;;;;;;5010749;28;20056;-78
2021/10/23 03:27:07;;;;;;;7.05;1.50;;;10.10;99.90;;;;;;5010938;28;20096;-79
2021/10/23 03:29:33;;;;;;;4.65;1.73;;;8.80;99.90;;;;;;5010965;28;20030;-79
2021/10/23 03:31:58;;;;;;;5.93;3.00;;;8.90;99.90;;;;;;5012329;28;20046;-78
2021/10/23 03:34:24;;;;;;;10.05;2.53;;;8.80;99.90;;;;;;5011301;28;20056;-78
2021/10/23 03:36:50;;;;;;;7.45;1.73;;;10.10;99.90;;;;;;5010743;28;20049;-78
2021/10/23 03:39:15;;;;;;;6.13;1.80;;;9.10;99.90;;;;;;5008369;28;20030;-78
2021/10/23 03:41:41;;;;;;;11.40;2.00;;;9.60;99.90;;;;;;5010065;28;20494;-78
2021/10/23 03:44:07;;;;;;;4.00;1.50;;;8.70;99.90;;;;;;5010050;28;20034;-78
2021/10/23 03:46:33;;;;;;;10.43;1.80;;;8.80;99.90;;;;;;5008676;28;20022;-78
2021/10/23 03:48:59;;;;;;;7.25;2.33;;;8.70;99.90;;;;;;5009305;28;20049;-78
2021/10/23 03:51:25;;;;;;;6.40;2.03;;;8.70;99.90;;;;;;5009880;28;20030;-78
2021/10/23 03:53:50;;;;;;;6.88;1.60;;;8.20;99.90;;;;;;5009220;28;20121;-79
2021/10/23 03:56:16;;;;;;;6.10;1.48;;;8.60;99.90;;;;;;5009344;28;20064;-78
2021/10/23 03:58:42;;;;;;;4.03;1.55;;;8.40;99.90;;;;;;5009545;28;20034;-78
2021/10/23 04:01:07;;;;;;;6.75;2.30;;;8.30;99.90;;;;;;5009862;28;20033;-78
2021/10/23 04:03:33;;;;;;;6.78;1.70;;;8.20;99.90;;;;;;5008032;28;20057;-78
2021/10/23 04:05:59;;;;;;;8.48;1.85;;;8.10;99.90;;;;;;5009553;28;20040;-78
2021/10/23 04:08:25;;;;;;;8.35;1.92;;;8.10;99.90;;;;;;5010064;28;20085;-78
2021/10/23 04:10:50;;;;;;;8.60;1.75;;;8.10;99.90;;;;;;5008424;28;20105;-78
2021/10/23 04:13:17;;;;;;;5.07;1.52;;;8.80;99.90;;;;;;5009605;28;20034;-78
2021/10/23 04:15:42;;;;;;;8.73;2.28;;;8.80;99.90;;;;;;5009609;28;20095;-78
2021/10/23 04:18:08;;;;;;;5.75;1.63;;;8.10;99.90;;;;;;5009272;28;20430;-78
2021/10/23 04:20:34;;;;;;;4.82;1.80;;;8.20;99.90;;;;;;5008339;28;20545;-78
2021/10/23 04:22:59;;;;;;;9.23;1.70;;;9.10;99.90;;;;;;5016764;28;20101;-78
2021/10/23 04:25:25;;;;;;;5.78;1.73;;;9.10;99.90;;;;;;5014004;28;20044;-78
2021/10/23 04:27:50;;;;;;;5.63;1.75;;;8.10;99.90;;;;;;5015224;28;20033;-78
2021/10/23 04:30:16;;;;;;;7.47;1.90;;;9.70;99.90;;;;;;5009287;28;20034;-79
2021/10/23 04:32:42;;;;;;;6.80;2.22;;;8.00;99.90;;;;;;5010182;28;20491;-79
2021/10/23 04:35:08;;;;;;;12.93;2.53;;;10.20;99.90;;;;;;5009923;28;20862;-78
2021/10/23 04:37:34;;;;;;;6.38;2.20;;;8.60;99.90;;;;;;5009566;28;20025;-78
2021/10/23 04:40:00;;;;;;;6.32;1.85;;;8.10;99.90;;;;;;5006752;28;20078;-78
2021/10/23 04:42:26;;;;;;;9.13;2.17;;;8.20;99.90;;;;;;5008815;28;20033;-78
2021/10/23 04:44:52;;;;;;;5.70;1.90;;;8.30;99.90;;;;;;5009783;28;20026;-78
2021/10/23 04:47:17;;;;;;;6.10;1.85;;;8.60;99.90;;;;;;5008481;28;20102;-78
2021/10/23 04:49:43;;;;;;;5.78;1.90;;;8.20;99.90;;;;;;4989530;28;20033;-78
2021/10/23 04:52:08;;;;;;;8.15;1.65;;;8.20;99.90;;;;;;5009687;28;20033;-79
2021/10/23 04:54:34;;;;;;;7.82;1.70;;;8.40;99.90;;;;;;5008854;28;20521;-79
2021/10/23 04:57:00;;;;;;;7.72;1.95;;;9.20;99.90;;;;;;5007868;28;20038;-78
2021/10/23 04:59:26;;;;;;;8.32;1.92;;;9.60;99.90;;;;;;5009578;28;20478;-79
2021/10/23 05:01:51;;;;;;;7.95;1.88;;;9.10;99.90;;;;;;5006744;28;20494;-78
2021/10/23 05:04:17;;;;;;;4.38;1.80;;;7.90;99.90;;;;;;5008329;28;20034;-78
2021/10/23 05:06:43;;;;;;;5.03;1.70;;;7.90;99.90;;;;;;5008744;28;20041;-78
2021/10/23 05:09:08;;;;;;;3.60;1.80;;;7.80;99.90;;;;;;5008530;28;20041;-78
2021/10/23 05:11:34;;;;;;;7.45;1.60;;;7.90;99.90;;;;;;5008515;28;20064;-78
2021/10/23 05:14:00;;;;;;;8.00;1.70;;;8.50;99.90;;;;;;5008662;28;20071;-78
2021/10/23 05:16:25;;;;;;;5.43;2.05;;;7.90;99.90;;;;;;5009065;28;20025;-78
2021/10/23 05:18:51;;;;;;;9.32;1.85;;;7.60;99.90;;;;;;5008671;28;20030;-78
2021/10/23 05:21:18;;;;;;;9.80;2.20;;;8.80;99.90;;;;;;5006293;28;20115;-78
2021/10/23 05:23:45;;;;;;;8.75;2.42;;;7.90;99.90;;;;;;5011433;28;20057;-78
2021/10/23 05:26:11;;;;;;;9.52;1.75;;;7.50;99.90;;;;;;5011069;28;20653;-78
2021/10/23 05:28:37;;;;;;;5.32;1.73;;;8.90;99.90;;;;;;5010986;28;20026;-78
2021/10/23 05:31:04;;;;;;;5.75;1.92;;;7.40;99.90;;;;;;4991602;28;20026;-78
2021/10/23 05:33:29;;;;;;;4.55;1.73;;;8.10;99.90;;;;;;5026851;28;20042;-78
2021/10/23 05:35:55;;;;;;;7.35;1.80;;;8.70;99.90;;;;;;5011944;28;20034;-78
2021/10/23 05:38:21;;;;;;;7.55;2.03;;;8.30;99.90;;;;;;5011673;28;20030;-78
2021/10/23 05:40:46;;;;;;;8.05;1.70;;;8.00;99.90;;;;;;5011273;28;20533;-78
2021/10/23 05:43:12;;;;;;;6.32;1.50;;;9.20;99.90;;;;;;5012654;28;20501;-78
2021/10/23 05:45:37;;;;;;;5.93;1.88;;;7.50;99.90;;;;;;5011079;28;20161;-78
2021/10/23 05:48:03;;;;;;;4.68;1.60;;;7.80;99.90;;;;;;4995269;28;20076;-78
2021/10/23 05:50:29;;;;;;;7.93;2.28;;;7.50;99.90;;;;;;4998722;28;20419;-78
2021/10/23 05:52:55;;;;;;;7.72;1.77;;;7.30;99.90;;;;;;5010070;28;20128;-78
2021/10/23 05:55:20;;;;;;;4.60;1.75;;;7.30;99.90;;;;;;5003443;28;20057;-79
2021/10/23 05:57:46;;;;;;;6.13;2.25;;;7.20;99.90;;;;;;4993438;28;20189;-79
2021/10/23 06:00:13;;;;;;;8.32;2.53;;;7.00;99.90;;;;;;4992670;28;20038;-79
2021/10/23 06:02:39;;;;;;;5.85;1.77;;;7.10;99.90;;;;;;4992514;28;20517;-79
2021/10/23 06:05:05;;;;;;;8.40;1.88;;;8.20;99.90;;;;;;4990240;28;20058;-79
2021/10/23 06:07:36;;;;;;;7.13;1.73;;;6.90;99.90;;;;;;4998594;28;20061;-79
2021/10/23 06:10:04;;;;;;;3.55;1.60;;;7.70;99.90;;;;;;5012113;28;20088;-79
2021/10/23 06:12:31;;;;;;;10.10;2.05;;;6.70;99.90;;;;;;4994960;28;20033;-79
2021/10/23 06:14:57;;;;;;;7.88;2.20;;;6.60;99.90;;;;;;5011617;28;20021;-79
2021/10/23 06:17:23;;;;;;;4.88;1.98;;;7.80;99.90;;;;;;5011558;28;20038;-79
2021/10/23 06:19:49;;;;;;;10.30;2.78;;;6.40;99.90;;;;;;5011554;28;20034;-79
2021/10/23 06:22:15;;;;;;;6.03;1.77;;;6.40;99.90;;;;;;5011695;28;20042;-79
2021/10/23 06:24:42;;;;;;;8.07;2.20;;;6.30;99.90;;;;;;5012766;28;20030;-79
2021/10/23 06:27:07;;;;;;;7.88;2.05;;;6.50;99.90;;;;;;5010941;28;20041;-79
2021/10/23 06:29:33;;;;;;;8.57;2.20;;;6.30;99.90;;;;;;5011995;28;20026;-79
2021/10/23 06:31:59;;;;;;;9.73;2.63;;;6.30;99.90;;;;;;5012490;28;20026;-79
2021/10/23 06:34:25;;;;;;;7.70;2.30;;;6.30;99.90;;;;;;5012343;28;20080;-79
2021/10/23 06:36:50;;;;;;;4.97;1.80;;;6.20;99.90;;;;;;5013223;28;20033;-79
2021/10/23 06:39:16;;;;;;;6.45;2.03;;;6.40;99.90;;;;;;4991248;28;20069;-79
2021/10/23 06:41:42;;;;;;;5.82;2.35;;;6.30;99.90;;;;;;5009070;28;20084;-79
2021/10/23 06:44:08;;;;;;;6.50;2.05;;;6.30;99.90;;;;;;5011153;28;20116;-79
2021/10/23 06:46:36;;;;;;;7.60;2.30;;;7.60;99.90;;;;;;5011557;28;20040;-79
2021/10/23 06:49:02;;;;;;;6.13;2.10;;;5.90;99.90;;;;;;5010305;28;20040;-79
2021/10/23 06:51:28;;;;;;;7.43;1.88;;;6.10;99.90;;;;;;5011916;28;20018;-79
2021/10/23 06:53:55;;;;;;;7.80;2.20;;;6.40;99.90;;;;;;5011829;28;20093;-79
2021/10/23 06:56:24;;;;;;;6.05;2.00;;;6.30;99.90;;;;;;5011813;28;20022;-79
2021/10/23 06:58:50;;;;;;;5.25;2.15;;;7.90;99.90;;;;;;5012584;28;20744;-79
2021/10/23 07:01:16;;;;;;;7.72;2.03;;;6.40;99.90;;;;;;5011023;28;20026;-79
2021/10/23 07:03:42;;;;;;;6.05;2.25;;;6.40;99.90;;;;;;5010898;28;20030;-79
2021/10/23 07:06:07;;;;;;;5.95;2.15;;;6.60;99.90;;;;;;5014689;28;20753;-79
2021/10/23 07:08:33;;;;;;;9.57;2.42;;;6.70;99.90;;;;;;5017102;28;20022;-79
2021/10/23 07:10:59;;;;;;;5.25;1.75;;;6.60;99.90;;;;;;5014762;28;20053;-79
2021/10/23 07:13:24;;;;;;;8.65;2.38;;;6.70;99.90;;;;;;4993820;28;20030;-79
2021/10/23 07:15:50;;;;;;;5.45;2.15;;;6.70;99.90;;;;;;4994641;28;20470;-79
2021/10/23 07:18:15;;;;;;;7.07;2.35;;;6.80;99.90;;;;;;4991988;28;20150;-79
2021/10/23 07:20:41;;;;;;;5.45;2.13;;;7.10;99.90;;;;;;4991045;28;20032;-79
2021/10/23 07:23:07;;;;;;;7.78;2.83;;;7.00;99.90;;;;;;4992415;28;20030;-79
2021/10/23 07:25:33;;;;;;;7.20;2.28;;;6.90;99.90;;;;;;4990341;28;20114;-79
2021/10/23 07:27:58;;;;;;;6.13;1.85;;;7.30;99.90;;;;;;4991344;28;20033;-79
2021/10/23 07:30:24;;;;;;;6.90;2.15;;;7.30;99.90;;;;;;5000540;28;20025;-80
2021/10/23 07:32:50;;;;;;;7.32;2.38;;;6.40;99.90;;;;;;5015376;28;20046;-79
2021/10/23 07:35:15;;;;;;;7.88;1.73;;;7.50;99.90;;;;;;5013476;28;20034;-80
2021/10/23 07:37:41;;;;;;;5.13;1.95;;;8.50;99.90;;;;;;5002751;28;20031;-80
2021/10/23 07:40:09;;;;;;;10.10;2.50;;;7.80;99.90;;;;;;4993119;28;20062;-80
2021/10/23 07:42:36;;;;;;;9.27;2.30;;;7.90;99.90;;;;;;5011047;28;20100;-80
2021/10/23 07:45:03;;;;;;;9.30;2.65;;;8.30;99.90;;;;;;5010133;28;20084;-80
2021/10/23 07:47:29;;;;;;;5.90;2.22;;;8.20;99.90;;;;;;5011199;28;20076;-80
2021/10/23 07:49:55;;;;;;;8.02;2.45;;;9.40;99.90;;;;;;5008099;28;20034;-81
2021/10/23 07:52:21;;;;;;;7.78;2.35;;;8.40;99.90;;;;;;4999196;28;20034;-80
2021/10/23 07:54:47;;;;;;;7.28;2.33;;;;;;;;;;4997140;28;20057;-80
2021/10/23 07:57:13;;;;;;;6.93;2.15;;;;;;;;;;4995887;28;20065;-80
2021/10/23 07:59:39;;;;;;;6.97;2.10;;;;;;;;;;4995321;28;20027;-80
2021/10/23 08:02:05;;;;;;;10.05;2.70;;;;;;;;;;4996859;28;20124;-80
2021/10/23 08:04:32;;;;;;;9.48;2.45;;;;;;;;;;4996432;28;20041;-80
2021/10/23 08:07:02;;;;;;;11.30;3.35;;;;;;;;;;4999300;28;20023;-80
2021/10/23 08:09:28;;;;;;;8.45;2.10;;;;;;;;;;5017120;28;20025;-79
2021/10/23 08:11:54;;;;;;;9.20;1.92;;;;;;;;;;5016371;28;20033;-80
2021/10/23 08:14:20;;;;;;;6.82;2.25;;;;;;;;;;5017022;28;20033;-80
2021/10/23 08:16:46;;;;;;;6.13;1.90;;;;;;;;;;5020775;28;20044;-80
2021/10/23 08:19:12;;;;;;;5.43;1.92;;;9.00;99.90;;;;;;5021170;28;20026;-79
2021/10/23 08:21:39;;;;;;;7.10;2.20;;;12.30;99.90;;;;;;5021187;28;20034;-79
2021/10/23 08:24:06;;;;;;;5.93;2.08;;;13.30;99.90;;;;;;5022387;28;20549;-79
2021/10/23 08:26:31;;;;;;;5.28;2.28;;;13.50;99.90;;;;;;5020340;28;20160;-80
2021/10/23 08:28:57;;;;;;;8.40;2.38;;;13.40;99.90;;;;;;5021236;28;20053;-80
2021/10/23 08:31:23;;;;;;;5.45;2.08;;;13.90;99.90;;;;;;5014795;28;20074;-80
2021/10/23 08:33:50;;;;;;;7.63;1.92;;;14.10;99.90;;;;;;5014430;28;20022;-80
2021/10/23 08:36:15;;;;;;;6.55;1.98;;;14.80;99.90;;;;;;5019315;28;20029;-80
2021/10/23 08:38:41;;;;;;;7.07;1.98;;;15.20;99.90;;;;;;5020896;28;20030;-81
2021/10/23 08:41:07;;;;;;;4.72;1.35;;;;;;;;;;5015745;28;20030;-82
2021/10/23 08:43:35;;;;;;;5.07;2.28;;;;;;;;;;5015351;28;20026;-81
2021/10/23 08:46:01;;;;;;;5.25;1.85;;;;;;;;;;5014535;28;20026;-81
2021/10/23 08:48:28;;;;;;;6.32;1.80;;;;;;;;;;5019939;28;20026;-81
2021/10/23 08:50:54;;;;;;;6.43;2.42;;;;;;;;;;5013261;28;20029;-81
2021/10/23 08:53:20;;;;;;;6.82;1.90;;;;;;;;;;5012861;28;20052;-81
2021/10/23 08:55:47;;;;;;;6.25;2.20;;;;;;;;;;5012891;28;20707;-82
2021/10/23 08:58:16;;;;;;;7.15;2.58;;;15.40;99.90;;;;;;5011820;28;20092;-82
2021/10/23 09:00:43;;;;;;;8.18;2.17;;;16.80;98.90;;;;;;5011107;28;20032;-82
2021/10/23 09:03:09;;;;;;;5.57;1.80;;;16.50;98.90;;;;;;5012106;28;20030;-81
2021/10/23 09:05:36;;;;;;;5.22;2.13;;;;;;;;;;5011511;28;20025;-81
2021/10/23 09:08:10;;;;;;;6.72;1.80;;;;;;;;;;5001149;28;20031;-82
2021/10/23 09:10:37;;;;;;;9.48;2.30;;;;;;;;;;4991622;28;20109;-81
2021/10/23 09:13:05;;;;;;;5.80;2.10;;;;;;;;;;4992610;28;20042;-81
2021/10/23 09:15:32;;;;;;;6.53;1.95;;;;;;;;;;4992060;28;20112;-81
2021/10/23 09:17:58;;;;;;;6.47;1.92;;;;;;;;;;4993160;28;20030;-81
2021/10/23 09:20:24;;;;;;;6.53;1.98;;;;;;;;;;4998417;28;20522;-81
2021/10/23 09:22:52;;;;;;;6.10;1.73;;;;;;;;;;5011280;28;20521;-82
2021/10/23 09:25:22;;;;;;;8.10;2.05;;;;;;;;;;5011825;28;20025;-81
2021/10/23 09:27:48;;;;;;;6.85;2.20;;;;;;;;;;5014293;28;20044;-81
2021/10/23 09:30:14;;;;;;;13.45;2.45;;;;;;;;;;4998292;28;20027;-82
2021/10/23 09:32:40;;;;;;;6.28;2.00;;;;;;;;;;5000854;28;20048;-81
2021/10/23 09:35:11;;;;;;;6.13;1.90;;;;;;;;;;5004929;28;20080;-81
2021/10/23 09:37:37;;;;;;;6.10;1.85;;;;;;;;;;4991176;28;20031;-82
2021/10/23 09:40:09;;;;;;;6.18;2.00;;;;;;;;;;4992359;28;20053;-81
2021/10/23 09:42:35;;;;;;;5.57;2.22;;;;;;;;;;4992554;28;20483;-82
2021/10/23 09:45:05;;;;;;;5.10;1.83;;;;;;;;;;4994064;28;20030;-82
2021/10/23 09:47:35;;;;;;;9.45;2.30;;;;;;;;;;4996509;28;20491;-81
2021/10/23 09:50:04;;;;;;;5.57;1.90;;;;;;;;;;5007423;28;20037;-82
2021/10/23 09:52:32;;;;;;;6.18;1.80;;;;;;;;;;5015377;28;20018;-81
2021/10/23 09:55:10;;;;;;;8.00;2.42;;;;;;;;;;5015880;28;20030;-81
2021/10/23 09:57:36;;;;;;;5.53;1.75;;;;;;;;;;5016134;28;20101;-82
2021/10/23 10:00:09;;;;;;;11.60;1.92;;;;;;;;;;5006588;28;20038;-82
2021/10/23 10:02:42;;;;;;;7.15;1.98;;;;;;;;;;5014683;28;20022;-83
2021/10/23 10:05:08;;;;;;;5.75;1.85;;;;;;;;;;5015333;28;20026;-82
2021/10/23 10:07:34;;;;;;;3.63;1.90;;;;;;;;;;5012847;28;20507;-82
2021/10/23 10:10:01;;;;;;;6.22;1.95;;;;;;;;;;5015405;28;20061;-81
2021/10/23 10:12:31;;;;;;;6.88;2.30;;;;;;;;;;5012189;28;20033;-81
2021/10/23 10:14:57;;;;;;;6.43;1.83;;;;;;;;;;5028773;28;20033;-81
2021/10/23 10:17:24;;;;;;;3.25;1.80;;;;;;;;;;5015458;28;20756;-81
2021/10/23 10:19:51;;;;;;;6.72;1.75;;;;;;;;;;5007864;28;20103;-81
2021/10/23 10:22:17;;;;;;;5.22;1.73;;;;;;;;;;4995069;28;20030;-82
2021/10/23 10:24:43;;;;;;;12.13;3.70;;;;;;;;;;4994751;28;20206;-81
2021/10/23 10:27:11;;;;;;;5.55;2.13;;;;;;;;;;4994495;28;20031;-82
2021/10/23 10:30:00;;;;;;;8.73;3.00;;;;;;;;;;4995523;28;20027;-82
2021/10/23 10:32:31;;;;;;;9.98;3.70;;;;;;;;;;4995468;28;20109;-81
2021/10/23 10:35:09;;;;;;;4.97;2.30;;;;;;;;;;4995884;28;20030;-81
2021/10/23 10:37:52;;;;;;;7.90;2.20;;;;;;;;;;5003360;28;20022;-83
2021/10/23 10:43:01;;;;;;;9.85;2.40;;;;;;;;;;5015554;28;20053;-80
2021/10/23 10:45:29;;;;;;;8.50;2.30;;;;;;;;;;5015904;28;20082;-79
2021/10/23 10:48:14;;;;;;;9.80;3.10;;;;;;;;;;5017346;28;20030;-81
2021/10/23 10:50:50;;;;;;;4.30;1.90;;;;;;;;;;5012132;28;20658;-79
2021/10/23 10:53:23;;;;;;;4.85;1.98;;;;;;;;;;5011803;28;20728;-79
2021/10/23 10:55:54;;;;;;;5.13;2.00;;;;;;;;;;5012911;28;20057;-79
2021/10/23 10:58:21;;;;;;;4.05;1.92;;;;;;;;;;5010569;28;20030;-77
2021/10/23 11:00:51;;;;;;;6.95;2.10;;;;;;;;;;5016290;28;20026;-83
2021/10/23 11:03:37;;;;;;;8.15;1.80;;;;;;;;;;5013714;28;20073;-82
2021/10/23 11:06:21;;;;;;;7.40;1.98;;;;;;;;;;5016055;28;20049;-80
2021/10/23 11:08:47;;;;;;;7.07;1.75;;;;;;;;;;5016074;28;20490;-79
2021/10/23 11:11:13;;;;;;;4.50;1.60;;;;;;;;;;5016594;28;20033;-81
2021/10/23 11:13:44;;;;;;;4.75;1.80;;;;;;;;;;5013047;28;20045;-80
2021/10/23 11:16:27;;;;;;;7.10;2.05;;;;;;;;;;5012268;28;20033;-80
2021/10/23 11:18:59;;;;;;;5.60;1.80;;;;;;;;;;5016375;28;20026;-79
2021/10/23 11:21:26;;;;;;;4.40;1.77;;;;;;;;;;4997378;28;20061;-80
2021/10/23 11:23:53;;;;;;;4.88;1.80;;;;;;;;;;5016140;28;20026;-80
2021/10/23 11:26:19;;;;;;;4.65;1.73;;;;;;;;;;5015981;28;20024;-83
2021/10/23 11:28:45;;;;;;;3.75;1.67;;;;;;;;;;5015207;28;20394;-81
2021/10/23 11:31:19;;;;;;;3.65;1.58;;;;;;;;;;5013288;28;20029;-80
2021/10/23 11:33:45;;;;;;;5.15;1.70;;;;;;;;;;5015864;28;20030;-81
2021/10/23 11:36:16;;;;;;;4.57;1.42;;;;;;;;;;5015121;28;20045;-81
2021/10/23 11:38:42;;;;;;;4.55;1.50;;;;;;;;;;4998928;28;20048;-81
2021/10/23 11:41:08;;;;;;;4.85;1.45;;;;;;;;;;5010510;28;20049;-80
2021/10/23 11:43:38;;;;;;;4.30;1.38;;;;;;;;;;5013778;28;20038;-79
2021/10/23 11:46:06;;;;;;;4.85;1.50;;;;;;;;;;5014287;28;20057;-80
2021/10/23 11:48:32;;;;;;;4.82;1.30;;;;;;;;;;5014562;28;20390;-81
2021/10/23 11:50:58;;;;;;;7.65;2.10;;;;;;;;;;5013022;28;20041;-80
2021/10/23 11:53:26;;;;;;;5.57;1.30;;;;;;;;;;5013865;28;20057;-80
2021/10/23 11:56:00;;;;;;;2.50;0.95;;;;;;;;;;5014594;28;20017;-81
2021/10/23 11:58:27;;;;;;;4.80;1.20;;;;;;;;;;5014088;28;20360;-80
2021/10/23 12:01:01;;;;;;;3.95;1.10;;;;;;;;;;5013360;28;20034;-80
2021/10/23 12:03:32;;;;;;;3.60;1.15;;;;;;;;;;5015610;28;20026;-80
2021/10/23 12:05:58;;;;;;;4.55;0.93;;;;;;;;;;5014243;28;20017;-81
2021/10/23 12:08:30;;;;;;;2.50;0.63;;;;;;;;;;5014259;28;20033;-80
2021/10/23 12:11:04;;;;;;;2.88;0.60;;;;;;;;;;5016916;28;20103;-82
2021/10/23 12:13:31;;;;;;;2.40;0.90;;;;;;;;;;5019320;28;20026;-83
2021/10/23 12:16:04;;;;;;;3.45;1.15;;;;;;;;;;5019674;28;20034;-82
2021/10/23 12:18:31;;;;;;;4.05;0.70;;;;;;;;;;5019610;28;20032;-82
2021/10/23 12:21:30;;;;;;;2.22;1.13;;;;;;;;;;5018633;28;20084;-84
2021/10/23 12:23:56;;;;;;;3.33;1.02;;;;;;;;;;4998010;28;20077;-83
2021/10/23 12:26:27;;;;;;;4.03;1.27;;;;;;;;;;5020923;28;20026;-83
2021/10/23 12:28:57;;;;;;;3.25;0.95;;;;;;;;;;5020244;28;20527;-83
2021/10/23 12:31:23;;;;;;;4.45;1.05;;;;;;;;;;5020029;28;20037;-82
2021/10/23 12:33:59;;;;;;;7.00;0.90;;;;;;;;;;5019939;28;20022;-82
2021/10/23 12:36:25;;;;;;;5.30;1.25;;;;;;;;;;5020383;28;20494;-83
2021/10/23 12:38:51;;;;;;;7.32;1.10;;;;;;;;;;5017853;28;20065;-82
2021/10/23 12:41:17;;;;;;;3.28;0.90;;;;;;;;;;5017754;28;20022;-82
2021/10/23 12:43:43;;;;;;;2.83;1.13;;;;;;;;;;5018482;28;20036;-83
2021/10/23 12:46:11;;;;;;;4.85;1.13;;;;;;;;;;5016710;28;20036;-81
2021/10/23 12:48:37;;;;;;;4.80;1.20;;;;;;;;;;5016494;28;20022;-82
2021/10/23 12:51:03;;;;;;;4.43;0.88;;;;;;;;;;5015723;28;20072;-81
2021/10/23 12:53:29;;;;;;;6.97;1.08;;;;;;;;;;5014619;28;20757;-82
2021/10/23 12:55:55;;;;;;;2.38;0.90;;;;;;;;;;5015893;28;20034;-82
2021/10/23 12:58:21;;;;;;;3.03;1.00;;;;;;;;;;5014010;28;20034;-82
2021/10/23 13:00:48;;;;;;;3.13;0.90;;;;;;;;;;5014677;28;20053;-83
2021/10/23 13:03:16;;;;;;;3.35;0.85;;;;;;;;;;5014998;28;20053;-83
2021/10/23 13:05:42;;;;;;;4.32;1.08;;;;;;;;;;5014053;28;20077;-83
2021/10/23 13:08:08;;;;;;;6.43;1.42;;;;;;;;;;5013725;28;20044;-82
2021/10/23 13:10:34;;;;;;;4.60;1.02;;;;;;;;;;5013316;28;20113;-83
2021/10/23 13:13:00;;;;;;;3.55;0.98;;;;;;;;;;5012763;28;20080;-82
2021/10/23 13:15:28;;;;;;;1.77;0.70;;;;;;;;;;5013583;28;20491;-81
2021/10/23 13:17:54;;;;;;;5.90;0.90;;;;;;;;;;5013834;28;20033;-81
2021/10/23 13:20:20;;;;;;;3.03;0.85;;;;;;;;;;5013506;28;20025;-81
2021/10/23 13:22:46;;;;;;;1.30;0.40;;;;;;;;;;5014872;28;20041;-81
2021/10/23 13:25:13;;;;;;;1.67;0.57;;;;;;;;;;5014827;28;20674;-80
2021/10/23 13:27:43;;;;;;;3.50;0.95;;;;;;;;;;5012482;28;20498;-82
2021/10/23 13:30:12;;;;;;;2.05;0.55;;;;;;;;;;5013750;28;20029;-82
2021/10/23 13:32:40;;;;;;;4.75;1.80;;;;;;;;;;5014772;28;20030;-81